sensor_id;sensor_type;location;lat;lon;timestamp;P1;durP1;ratioP1;P2;durP2;ratioP2
5690;SDS011;2870;42.680;23.364;2023-01-09T00:01:45;35.27;;;20.80;;
5690;SDS011;2870;42.680;23.364;2023-01-09T00:04:13;31.37;;;19.17;;
5690;SDS011;2870;42.680;23.364;2023-01-09T00:06:40;33.67;;;20.63;;
5690;SDS011;2870;42.680;23.364;2023-01-09T00:09:07;35.93;;;20.17;;
5690;SDS011;2870;42.680;23.364;2023-01-09T00:11:34;37.55;;;20.27;;
5690;SDS011;2870;42.680;23.364;2023-01-09T00:14:02;34.20;;;21.67;;
5690;SDS011;2870;42.680;23.364;2023-01-09T00:16:29;38.63;;;21.53;;
5690;SDS011;2870;42.680;23.364;2023-01-09T00:18:57;46.63;;;22.37;;
5690;SDS011;2870;42.680;23.364;2023-01-09T00:21:25;46.60;;;22.77;;
5690;SDS011;2870;42.680;23.364;2023-01-09T00:23:52;38.63;;;22.63;;
5690;SDS011;2870;42.680;23.364;2023-01-09T00:26:19;47.43;;;26.30;;
5690;SDS011;2870;42.680;23.364;2023-01-09T00:28:47;40.60;;;24.70;;
5690;SDS011;2870;42.680;23.364;2023-01-09T00:31:14;46.10;;;28.03;;
5690;SDS011;2870;42.680;23.364;2023-01-09T00:33:42;45.80;;;26.60;;
5690;SDS011;2870;42.680;23.364;2023-01-09T00:36:12;50.67;;;27.10;;
5690;SDS011;2870;42.680;23.364;2023-01-09T00:38:39;56.77;;;30.00;;
5690;SDS011;2870;42.680;23.364;2023-01-09T00:41:07;52.90;;;31.50;;
5690;SDS011;2870;42.680;23.364;2023-01-09T00:43:37;57.23;;;32.13;;
5690;SDS011;2870;42.680;23.364;2023-01-09T00:46:08;56.87;;;31.47;;
5690;SDS011;2870;42.680;23.364;2023-01-09T00:48:36;61.73;;;33.33;;
5690;SDS011;2870;42.680;23.364;2023-01-09T00:51:06;69.60;;;33.93;;
5690;SDS011;2870;42.680;23.364;2023-01-09T00:53:35;66.17;;;34.93;;
5690;SDS011;2870;42.680;23.364;2023-01-09T00:56:05;65.30;;;35.10;;
5690;SDS011;2870;42.680;23.364;2023-01-09T00:58:35;67.70;;;35.60;;
5690;SDS011;2870;42.680;23.364;2023-01-09T01:01:02;61.45;;;35.00;;
5690;SDS011;2870;42.680;23.364;2023-01-09T01:03:29;68.03;;;37.40;;
5690;SDS011;2870;42.680;23.364;2023-01-09T01:05:56;63.07;;;36.87;;
5690;SDS011;2870;42.680;23.364;2023-01-09T01:08:42;79.93;;;37.65;;
5690;SDS011;2870;42.680;23.364;2023-01-09T01:11:09;64.15;;;35.38;;
5690;SDS011;2870;42.680;23.364;2023-01-09T01:13:37;68.80;;;36.70;;
5690;SDS011;2870;42.680;23.364;2023-01-09T01:16:05;63.47;;;37.20;;
5690;SDS011;2870;42.680;23.364;2023-01-09T01:18:33;74.43;;;38.30;;
5690;SDS011;2870;42.680;23.364;2023-01-09T01:21:03;71.70;;;35.38;;
5690;SDS011;2870;42.680;23.364;2023-01-09T01:23:31;61.42;;;35.53;;
5690;SDS011;2870;42.680;23.364;2023-01-09T01:26:02;66.93;;;35.90;;
5690;SDS011;2870;42.680;23.364;2023-01-09T01:28:30;62.30;;;36.47;;
5690;SDS011;2870;42.680;23.364;2023-01-09T01:30:57;68.78;;;37.58;;
5690;SDS011;2870;42.680;23.364;2023-01-09T01:33:23;66.90;;;36.97;;
5690;SDS011;2870;42.680;23.364;2023-01-09T01:35:55;69.97;;;36.83;;
5690;SDS011;2870;42.680;23.364;2023-01-09T01:38:25;59.83;;;35.25;;
5690;SDS011;2870;42.680;23.364;2023-01-09T01:40:52;65.78;;;35.90;;
5690;SDS011;2870;42.680;23.364;2023-01-09T01:43:20;73.00;;;36.88;;
5690;SDS011;2870;42.680;23.364;2023-01-09T01:45:47;67.53;;;34.45;;
5690;SDS011;2870;42.680;23.364;2023-01-09T01:48:14;61.50;;;37.25;;
5690;SDS011;2870;42.680;23.364;2023-01-09T01:50:43;64.60;;;37.08;;
5690;SDS011;2870;42.680;23.364;2023-01-09T01:53:14;60.42;;;35.50;;
5690;SDS011;2870;42.680;23.364;2023-01-09T01:55:54;63.07;;;33.60;;
5690;SDS011;2870;42.680;23.364;2023-01-09T01:58:32;66.40;;;35.30;;
5690;SDS011;2870;42.680;23.364;2023-01-09T02:01:03;62.00;;;35.13;;
5690;SDS011;2870;42.680;23.364;2023-01-09T02:03:30;52.40;;;34.55;;
5690;SDS011;2870;42.680;23.364;2023-01-09T02:05:58;63.33;;;35.28;;
5690;SDS011;2870;42.680;23.364;2023-01-09T02:08:25;71.05;;;35.80;;
5690;SDS011;2870;42.680;23.364;2023-01-09T02:10:52;62.17;;;34.90;;
5690;SDS011;2870;42.680;23.364;2023-01-09T02:13:19;57.77;;;32.53;;
5690;SDS011;2870;42.680;23.364;2023-01-09T02:15:52;70.45;;;35.22;;
5690;SDS011;2870;42.680;23.364;2023-01-09T02:18:39;60.00;;;34.60;;
5690;SDS011;2870;42.680;23.364;2023-01-09T02:21:14;53.15;;;32.38;;
5690;SDS011;2870;42.680;23.364;2023-01-09T02:23:56;62.28;;;31.65;;
5690;SDS011;2870;42.680;23.364;2023-01-09T02:26:55;60.22;;;33.05;;
5690;SDS011;2870;42.680;23.364;2023-01-09T02:29:43;59.65;;;31.42;;
5690;SDS011;2870;42.680;23.364;2023-01-09T02:32:25;57.03;;;30.13;;
5690;SDS011;2870;42.680;23.364;2023-01-09T02:35:03;60.95;;;32.42;;
5690;SDS011;2870;42.680;23.364;2023-01-09T02:37:40;56.55;;;32.22;;
5690;SDS011;2870;42.680;23.364;2023-01-09T02:40:18;56.25;;;31.60;;
5690;SDS011;2870;42.680;23.364;2023-01-09T02:42:50;55.17;;;31.88;;
5690;SDS011;2870;42.680;23.364;2023-01-09T02:45:19;61.13;;;34.00;;
5690;SDS011;2870;42.680;23.364;2023-01-09T02:47:48;51.78;;;31.45;;
5690;SDS011;2870;42.680;23.364;2023-01-09T02:50:16;54.08;;;31.10;;
5690;SDS011;2870;42.680;23.364;2023-01-09T02:52:59;64.40;;;34.03;;
5690;SDS011;2870;42.680;23.364;2023-01-09T02:55:53;56.17;;;31.35;;
5690;SDS011;2870;42.680;23.364;2023-01-09T02:58:30;56.65;;;32.03;;
5690;SDS011;2870;42.680;23.364;2023-01-09T03:03:58;58.55;;;33.97;;
5690;SDS011;2870;42.680;23.364;2023-01-09T03:06:29;56.30;;;31.80;;
5690;SDS011;2870;42.680;23.364;2023-01-09T03:09:03;55.95;;;32.03;;
5690;SDS011;2870;42.680;23.364;2023-01-09T03:11:34;60.83;;;32.83;;
5690;SDS011;2870;42.680;23.364;2023-01-09T03:14:07;50.33;;;30.60;;
5690;SDS011;2870;42.680;23.364;2023-01-09T03:16:37;54.97;;;34.35;;
5690;SDS011;2870;42.680;23.364;2023-01-09T03:19:06;56.08;;;33.50;;
5690;SDS011;2870;42.680;23.364;2023-01-09T03:21:37;60.60;;;34.28;;
5690;SDS011;2870;42.680;23.364;2023-01-09T03:24:05;51.83;;;32.47;;
5690;SDS011;2870;42.680;23.364;2023-01-09T03:26:32;55.53;;;34.35;;
5690;SDS011;2870;42.680;23.364;2023-01-09T03:28:59;57.60;;;31.55;;
5690;SDS011;2870;42.680;23.364;2023-01-09T03:31:27;59.47;;;33.22;;
5690;SDS011;2870;42.680;23.364;2023-01-09T03:33:54;60.15;;;35.50;;
5690;SDS011;2870;42.680;23.364;2023-01-09T03:36:22;58.97;;;35.33;;
5690;SDS011;2870;42.680;23.364;2023-01-09T03:38:50;63.22;;;31.90;;
5690;SDS011;2870;42.680;23.364;2023-01-09T03:41:17;61.65;;;34.65;;
5690;SDS011;2870;42.680;23.364;2023-01-09T03:43:44;54.40;;;31.70;;
5690;SDS011;2870;42.680;23.364;2023-01-09T03:46:12;59.42;;;31.23;;
5690;SDS011;2870;42.680;23.364;2023-01-09T03:48:39;54.75;;;32.38;;
5690;SDS011;2870;42.680;23.364;2023-01-09T03:51:06;49.92;;;29.73;;
5690;SDS011;2870;42.680;23.364;2023-01-09T03:53:34;55.88;;;30.25;;
5690;SDS011;2870;42.680;23.364;2023-01-09T03:56:01;54.15;;;31.00;;
5690;SDS011;2870;42.680;23.364;2023-01-09T03:58:28;49.03;;;29.42;;
5690;SDS011;2870;42.680;23.364;2023-01-09T04:00:56;48.35;;;29.08;;
5690;SDS011;2870;42.680;23.364;2023-01-09T04:03:24;51.75;;;29.90;;
5690;SDS011;2870;42.680;23.364;2023-01-09T04:05:52;50.63;;;30.23;;
5690;SDS011;2870;42.680;23.364;2023-01-09T04:08:19;49.15;;;26.65;;
5690;SDS011;2870;42.680;23.364;2023-01-09T04:10:48;49.95;;;28.45;;
5690;SDS011;2870;42.680;23.364;2023-01-09T04:13:16;50.55;;;29.25;;
5690;SDS011;2870;42.680;23.364;2023-01-09T04:15:43;51.42;;;29.40;;
5690;SDS011;2870;42.680;23.364;2023-01-09T04:18:09;59.00;;;27.65;;
5690;SDS011;2870;42.680;23.364;2023-01-09T04:20:36;48.95;;;28.10;;
5690;SDS011;2870;42.680;23.364;2023-01-09T04:23:03;52.20;;;29.27;;
5690;SDS011;2870;42.680;23.364;2023-01-09T04:25:30;49.67;;;28.73;;
5690;SDS011;2870;42.680;23.364;2023-01-09T04:27:58;52.53;;;30.45;;
5690;SDS011;2870;42.680;23.364;2023-01-09T04:30:25;58.80;;;30.85;;
5690;SDS011;2870;42.680;23.364;2023-01-09T04:32:52;53.75;;;30.52;;
5690;SDS011;2870;42.680;23.364;2023-01-09T04:35:19;54.15;;;29.35;;
5690;SDS011;2870;42.680;23.364;2023-01-09T04:37:45;47.63;;;29.55;;
5690;SDS011;2870;42.680;23.364;2023-01-09T04:40:13;52.28;;;29.77;;
5690;SDS011;2870;42.680;23.364;2023-01-09T04:42:42;64.20;;;29.92;;
5690;SDS011;2870;42.680;23.364;2023-01-09T04:45:11;39.10;;;27.48;;
5690;SDS011;2870;42.680;23.364;2023-01-09T04:47:39;52.65;;;28.58;;
5690;SDS011;2870;42.680;23.364;2023-01-09T04:50:07;47.20;;;28.63;;
5690;SDS011;2870;42.680;23.364;2023-01-09T04:52:35;57.13;;;29.38;;
5690;SDS011;2870;42.680;23.364;2023-01-09T04:55:02;51.38;;;30.35;;
5690;SDS011;2870;42.680;23.364;2023-01-09T04:57:30;53.58;;;31.42;;
5690;SDS011;2870;42.680;23.364;2023-01-09T04:59:57;46.22;;;28.48;;
5690;SDS011;2870;42.680;23.364;2023-01-09T05:02:25;53.08;;;28.90;;
5690;SDS011;2870;42.680;23.364;2023-01-09T05:04:51;45.72;;;29.35;;
5690;SDS011;2870;42.680;23.364;2023-01-09T05:07:18;50.00;;;26.30;;
5690;SDS011;2870;42.680;23.364;2023-01-09T05:09:45;49.20;;;28.17;;
5690;SDS011;2870;42.680;23.364;2023-01-09T05:12:12;44.30;;;26.48;;
5690;SDS011;2870;42.680;23.364;2023-01-09T05:14:39;50.55;;;27.38;;
5690;SDS011;2870;42.680;23.364;2023-01-09T05:17:05;44.40;;;27.67;;
5690;SDS011;2870;42.680;23.364;2023-01-09T05:19:33;52.35;;;27.27;;
5690;SDS011;2870;42.680;23.364;2023-01-09T05:22:00;53.75;;;29.35;;
5690;SDS011;2870;42.680;23.364;2023-01-09T05:24:27;58.70;;;30.05;;
5690;SDS011;2870;42.680;23.364;2023-01-09T05:26:54;53.90;;;31.15;;
5690;SDS011;2870;42.680;23.364;2023-01-09T05:29:21;52.83;;;31.27;;
5690;SDS011;2870;42.680;23.364;2023-01-09T05:31:47;52.75;;;30.80;;
5690;SDS011;2870;42.680;23.364;2023-01-09T05:34:14;54.72;;;30.00;;
5690;SDS011;2870;42.680;23.364;2023-01-09T05:36:42;48.72;;;29.52;;
5690;SDS011;2870;42.680;23.364;2023-01-09T05:39:09;56.40;;;30.83;;
5690;SDS011;2870;42.680;23.364;2023-01-09T05:41:36;52.72;;;30.35;;
5690;SDS011;2870;42.680;23.364;2023-01-09T05:44:03;49.83;;;30.67;;
5690;SDS011;2870;42.680;23.364;2023-01-09T05:46:30;54.33;;;30.52;;
5690;SDS011;2870;42.680;23.364;2023-01-09T05:48:58;50.70;;;29.77;;
5690;SDS011;2870;42.680;23.364;2023-01-09T05:51:24;58.75;;;32.30;;
5690;SDS011;2870;42.680;23.364;2023-01-09T05:53:52;70.38;;;31.17;;
5690;SDS011;2870;42.680;23.364;2023-01-09T05:56:19;61.85;;;31.10;;
5690;SDS011;2870;42.680;23.364;2023-01-09T05:58:46;54.42;;;31.48;;
5690;SDS011;2870;42.680;23.364;2023-01-09T06:01:13;61.05;;;32.05;;
5690;SDS011;2870;42.680;23.364;2023-01-09T06:03:39;57.15;;;31.30;;
5690;SDS011;2870;42.680;23.364;2023-01-09T06:06:06;47.78;;;29.10;;
5690;SDS011;2870;42.680;23.364;2023-01-09T06:08:33;59.15;;;30.58;;
5690;SDS011;2870;42.680;23.364;2023-01-09T06:11:01;93.57;;;30.42;;
5690;SDS011;2870;42.680;23.364;2023-01-09T06:13:28;54.25;;;30.98;;
5690;SDS011;2870;42.680;23.364;2023-01-09T06:15:55;45.95;;;30.13;;
5690;SDS011;2870;42.680;23.364;2023-01-09T06:18:21;51.65;;;29.33;;
5690;SDS011;2870;42.680;23.364;2023-01-09T06:20:48;52.17;;;31.30;;
5690;SDS011;2870;42.680;23.364;2023-01-09T06:23:16;60.15;;;34.45;;
5690;SDS011;2870;42.680;23.364;2023-01-09T06:25:43;70.95;;;32.75;;
5690;SDS011;2870;42.680;23.364;2023-01-09T06:28:11;60.88;;;34.85;;
5690;SDS011;2870;42.680;23.364;2023-01-09T06:30:38;61.65;;;34.17;;
5690;SDS011;2870;42.680;23.364;2023-01-09T06:33:05;48.97;;;32.10;;
5690;SDS011;2870;42.680;23.364;2023-01-09T06:35:31;56.60;;;33.25;;
5690;SDS011;2870;42.680;23.364;2023-01-09T06:37:58;47.20;;;28.70;;
5690;SDS011;2870;42.680;23.364;2023-01-09T06:40:27;50.83;;;29.80;;
5690;SDS011;2870;42.680;23.364;2023-01-09T06:42:54;59.40;;;30.75;;
5690;SDS011;2870;42.680;23.364;2023-01-09T06:45:22;58.03;;;31.67;;
5690;SDS011;2870;42.680;23.364;2023-01-09T06:47:49;54.03;;;30.33;;
5690;SDS011;2870;42.680;23.364;2023-01-09T06:50:16;45.92;;;29.00;;
5690;SDS011;2870;42.680;23.364;2023-01-09T06:52:43;78.20;;;34.50;;
5690;SDS011;2870;42.680;23.364;2023-01-09T06:55:09;60.90;;;30.13;;
5690;SDS011;2870;42.680;23.364;2023-01-09T06:57:36;55.13;;;28.33;;
5690;SDS011;2870;42.680;23.364;2023-01-09T07:00:03;51.25;;;26.58;;
5690;SDS011;2870;42.680;23.364;2023-01-09T07:02:32;47.60;;;28.27;;
5690;SDS011;2870;42.680;23.364;2023-01-09T07:04:59;54.80;;;27.38;;
5690;SDS011;2870;42.680;23.364;2023-01-09T07:07:26;46.78;;;25.48;;
5690;SDS011;2870;42.680;23.364;2023-01-09T07:09:53;45.85;;;25.17;;
5690;SDS011;2870;42.680;23.364;2023-01-09T07:12:20;47.07;;;28.97;;
5690;SDS011;2870;42.680;23.364;2023-01-09T07:14:47;49.65;;;27.50;;
5690;SDS011;2870;42.680;23.364;2023-01-09T07:17:13;54.33;;;28.33;;
5690;SDS011;2870;42.680;23.364;2023-01-09T07:19:43;44.80;;;28.20;;
5690;SDS011;2870;42.680;23.364;2023-01-09T07:22:09;45.78;;;27.92;;
5690;SDS011;2870;42.680;23.364;2023-01-09T07:24:36;44.78;;;28.35;;
5690;SDS011;2870;42.680;23.364;2023-01-09T07:27:03;52.90;;;29.70;;
5690;SDS011;2870;42.680;23.364;2023-01-09T07:29:30;44.27;;;29.23;;
5690;SDS011;2870;42.680;23.364;2023-01-09T07:31:57;58.40;;;29.13;;
5690;SDS011;2870;42.680;23.364;2023-01-09T07:34:23;69.43;;;31.47;;
5690;SDS011;2870;42.680;23.364;2023-01-09T07:36:51;57.97;;;32.67;;
5690;SDS011;2870;42.680;23.364;2023-01-09T07:39:18;67.03;;;35.03;;
5690;SDS011;2870;42.680;23.364;2023-01-09T07:41:45;54.90;;;31.40;;
5690;SDS011;2870;42.680;23.364;2023-01-09T07:44:13;64.83;;;35.30;;
5690;SDS011;2870;42.680;23.364;2023-01-09T07:46:39;58.10;;;36.27;;
5690;SDS011;2870;42.680;23.364;2023-01-09T07:49:06;63.03;;;36.73;;
5690;SDS011;2870;42.680;23.364;2023-01-09T07:51:33;75.53;;;41.83;;
5690;SDS011;2870;42.680;23.364;2023-01-09T07:54:04;98.07;;;54.00;;
5690;SDS011;2870;42.680;23.364;2023-01-09T07:56:31;132.83;;;70.93;;
5690;SDS011;2870;42.680;23.364;2023-01-09T07:58:58;145.40;;;76.63;;
5690;SDS011;2870;42.680;23.364;2023-01-09T08:01:25;151.80;;;84.40;;
5690;SDS011;2870;42.680;23.364;2023-01-09T08:03:52;145.77;;;70.70;;
5690;SDS011;2870;42.680;23.364;2023-01-09T08:06:19;123.70;;;64.13;;
5690;SDS011;2870;42.680;23.364;2023-01-09T08:08:46;125.67;;;69.17;;
5690;SDS011;2870;42.680;23.364;2023-01-09T08:11:14;130.50;;;68.97;;
5690;SDS011;2870;42.680;23.364;2023-01-09T08:13:41;110.07;;;59.37;;
5690;SDS011;2870;42.680;23.364;2023-01-09T08:16:08;135.60;;;68.20;;
5690;SDS011;2870;42.680;23.364;2023-01-09T08:18:35;96.77;;;53.10;;
5690;SDS011;2870;42.680;23.364;2023-01-09T08:21:01;140.73;;;75.20;;
5690;SDS011;2870;42.680;23.364;2023-01-09T08:23:29;136.33;;;70.70;;
5690;SDS011;2870;42.680;23.364;2023-01-09T08:25:55;128.10;;;70.13;;
5690;SDS011;2870;42.680;23.364;2023-01-09T08:28:24;139.60;;;75.47;;
5690;SDS011;2870;42.680;23.364;2023-01-09T08:30:50;139.53;;;67.53;;
5690;SDS011;2870;42.680;23.364;2023-01-09T08:33:17;129.00;;;67.67;;
5690;SDS011;2870;42.680;23.364;2023-01-09T08:35:44;119.00;;;63.37;;
5690;SDS011;2870;42.680;23.364;2023-01-09T08:38:11;122.77;;;59.83;;
5690;SDS011;2870;42.680;23.364;2023-01-09T08:40:38;96.43;;;53.97;;
5690;SDS011;2870;42.680;23.364;2023-01-09T08:43:05;93.53;;;48.97;;
5690;SDS011;2870;42.680;23.364;2023-01-09T08:45:50;90.07;;;49.00;;
5690;SDS011;2870;42.680;23.364;2023-01-09T08:48:35;73.60;;;39.87;;
5690;SDS011;2870;42.680;23.364;2023-01-09T08:51:01;72.23;;;40.43;;
5690;SDS011;2870;42.680;23.364;2023-01-09T08:53:28;65.33;;;39.60;;
5690;SDS011;2870;42.680;23.364;2023-01-09T08:55:55;68.07;;;37.77;;
5690;SDS011;2870;42.680;23.364;2023-01-09T08:58:22;71.07;;;38.73;;
5690;SDS011;2870;42.680;23.364;2023-01-09T09:00:49;74.80;;;39.43;;
5690;SDS011;2870;42.680;23.364;2023-01-09T09:03:17;60.60;;;33.87;;
5690;SDS011;2870;42.680;23.364;2023-01-09T09:05:44;63.00;;;35.43;;
5690;SDS011;2870;42.680;23.364;2023-01-09T09:08:10;56.10;;;31.20;;
5690;SDS011;2870;42.680;23.364;2023-01-09T09:10:37;62.13;;;30.50;;
5690;SDS011;2870;42.680;23.364;2023-01-09T09:13:04;54.97;;;30.83;;
5690;SDS011;2870;42.680;23.364;2023-01-09T09:15:31;63.57;;;30.33;;
5690;SDS011;2870;42.680;23.364;2023-01-09T09:18:00;51.33;;;30.67;;
5690;SDS011;2870;42.680;23.364;2023-01-09T09:20:29;56.17;;;29.83;;
5690;SDS011;2870;42.680;23.364;2023-01-09T09:22:57;49.50;;;27.20;;
5690;SDS011;2870;42.680;23.364;2023-01-09T09:25:24;58.83;;;30.80;;
5690;SDS011;2870;42.680;23.364;2023-01-09T09:27:52;62.37;;;30.67;;
5690;SDS011;2870;42.680;23.364;2023-01-09T09:30:20;48.07;;;28.43;;
5690;SDS011;2870;42.680;23.364;2023-01-09T09:32:47;53.53;;;27.70;;
5690;SDS011;2870;42.680;23.364;2023-01-09T09:35:16;43.00;;;26.20;;
5690;SDS011;2870;42.680;23.364;2023-01-09T09:37:52;47.47;;;29.50;;
5690;SDS011;2870;42.680;23.364;2023-01-09T09:40:22;47.87;;;28.73;;
5690;SDS011;2870;42.680;23.364;2023-01-09T09:46:26;57.27;;;29.70;;
5690;SDS011;2870;42.680;23.364;2023-01-09T09:49:03;50.87;;;28.90;;
5690;SDS011;2870;42.680;23.364;2023-01-09T09:51:41;51.80;;;30.17;;
5690;SDS011;2870;42.680;23.364;2023-01-09T09:54:19;54.67;;;30.80;;
5690;SDS011;2870;42.680;23.364;2023-01-09T09:56:53;54.90;;;31.33;;
5690;SDS011;2870;42.680;23.364;2023-01-09T09:59:24;45.50;;;30.37;;
5690;SDS011;2870;42.680;23.364;2023-01-09T10:01:55;47.63;;;27.70;;
5690;SDS011;2870;42.680;23.364;2023-01-09T10:04:27;45.60;;;27.13;;
5690;SDS011;2870;42.680;23.364;2023-01-09T10:06:59;52.37;;;27.60;;
5690;SDS011;2870;42.680;23.364;2023-01-09T10:09:34;46.33;;;26.33;;
5690;SDS011;2870;42.680;23.364;2023-01-09T10:12:11;48.50;;;25.37;;
5690;SDS011;2870;42.680;23.364;2023-01-09T10:14:46;56.87;;;26.00;;
5690;SDS011;2870;42.680;23.364;2023-01-09T10:17:22;44.87;;;25.20;;
5690;SDS011;2870;42.680;23.364;2023-01-09T10:20:04;34.97;;;20.93;;
5690;SDS011;2870;42.680;23.364;2023-01-09T10:22:54;42.40;;;22.87;;
5690;SDS011;2870;42.680;23.364;2023-01-09T10:25:30;32.13;;;19.00;;
5690;SDS011;2870;42.680;23.364;2023-01-09T10:28:11;30.10;;;18.63;;
5690;SDS011;2870;42.680;23.364;2023-01-09T10:30:53;32.23;;;18.37;;
5690;SDS011;2870;42.680;23.364;2023-01-09T10:33:30;32.37;;;19.13;;
5690;SDS011;2870;42.680;23.364;2023-01-09T10:36:20;33.77;;;18.23;;
5690;SDS011;2870;42.680;23.364;2023-01-09T10:39:09;32.60;;;16.37;;
5690;SDS011;2870;42.680;23.364;2023-01-09T10:41:45;25.93;;;16.23;;
5690;SDS011;2870;42.680;23.364;2023-01-09T10:44:19;25.90;;;16.00;;
5690;SDS011;2870;42.680;23.364;2023-01-09T10:46:52;28.13;;;17.63;;
5690;SDS011;2870;42.680;23.364;2023-01-09T10:49:21;25.73;;;15.93;;
5690;SDS011;2870;42.680;23.364;2023-01-09T10:51:50;31.87;;;15.57;;
5690;SDS011;2870;42.680;23.364;2023-01-09T10:54:20;25.93;;;14.60;;
5690;SDS011;2870;42.680;23.364;2023-01-09T10:56:50;27.07;;;16.40;;
5690;SDS011;2870;42.680;23.364;2023-01-09T10:59:20;24.83;;;16.00;;
5690;SDS011;2870;42.680;23.364;2023-01-09T11:01:47;28.10;;;16.43;;
5690;SDS011;2870;42.680;23.364;2023-01-09T11:04:16;28.37;;;15.63;;
5690;SDS011;2870;42.680;23.364;2023-01-09T11:06:49;26.63;;;14.90;;
5690;SDS011;2870;42.680;23.364;2023-01-09T11:09:21;30.90;;;14.27;;
5690;SDS011;2870;42.680;23.364;2023-01-09T11:11:48;26.90;;;15.37;;
5690;SDS011;2870;42.680;23.364;2023-01-09T11:14:15;31.13;;;15.23;;
5690;SDS011;2870;42.680;23.364;2023-01-09T11:16:50;26.13;;;15.20;;
5690;SDS011;2870;42.680;23.364;2023-01-09T11:19:18;22.13;;;14.20;;
5690;SDS011;2870;42.680;23.364;2023-01-09T11:21:46;26.57;;;15.77;;
5690;SDS011;2870;42.680;23.364;2023-01-09T11:24:24;30.30;;;14.77;;
5690;SDS011;2870;42.680;23.364;2023-01-09T11:27:03;24.37;;;14.37;;
5690;SDS011;2870;42.680;23.364;2023-01-09T11:30:04;25.03;;;15.70;;
5690;SDS011;2870;42.680;23.364;2023-01-09T11:32:39;28.87;;;15.63;;
5690;SDS011;2870;42.680;23.364;2023-01-09T11:35:13;33.13;;;16.87;;
5690;SDS011;2870;42.680;23.364;2023-01-09T11:37:42;31.83;;;15.40;;
5690;SDS011;2870;42.680;23.364;2023-01-09T11:40:16;29.40;;;17.70;;
5690;SDS011;2870;42.680;23.364;2023-01-09T11:43:01;27.70;;;15.93;;
5690;SDS011;2870;42.680;23.364;2023-01-09T11:45:30;25.10;;;15.77;;
5690;SDS011;2870;42.680;23.364;2023-01-09T11:47:59;29.17;;;16.13;;
5690;SDS011;2870;42.680;23.364;2023-01-09T11:50:28;26.67;;;17.13;;
5690;SDS011;2870;42.680;23.364;2023-01-09T11:53:10;25.43;;;15.53;;
5690;SDS011;2870;42.680;23.364;2023-01-09T11:55:40;28.67;;;15.77;;
5690;SDS011;2870;42.680;23.364;2023-01-09T11:58:10;25.57;;;15.50;;
5690;SDS011;2870;42.680;23.364;2023-01-09T12:00:40;27.27;;;15.60;;
5690;SDS011;2870;42.680;23.364;2023-01-09T12:03:15;28.13;;;15.27;;
5690;SDS011;2870;42.680;23.364;2023-01-09T12:05:56;33.63;;;17.57;;
5690;SDS011;2870;42.680;23.364;2023-01-09T12:08:36;32.83;;;14.70;;
5690;SDS011;2870;42.680;23.364;2023-01-09T12:11:18;28.07;;;16.63;;
5690;SDS011;2870;42.680;23.364;2023-01-09T12:13:55;31.10;;;15.47;;
5690;SDS011;2870;42.680;23.364;2023-01-09T12:16:41;27.67;;;15.43;;
5690;SDS011;2870;42.680;23.364;2023-01-09T12:19:35;31.33;;;15.97;;
5690;SDS011;2870;42.680;23.364;2023-01-09T12:22:12;23.47;;;16.20;;
5690;SDS011;2870;42.680;23.364;2023-01-09T12:30:48;21.90;;;13.83;;
5690;SDS011;2870;42.680;23.364;2023-01-09T12:33:30;28.30;;;16.17;;
5690;SDS011;2870;42.680;23.364;2023-01-09T12:36:08;24.87;;;15.43;;
5690;SDS011;2870;42.680;23.364;2023-01-09T12:38:40;22.00;;;14.07;;
5690;SDS011;2870;42.680;23.364;2023-01-09T12:41:18;25.17;;;14.73;;
5690;SDS011;2870;42.680;23.364;2023-01-09T12:44:21;24.93;;;14.90;;
5690;SDS011;2870;42.680;23.364;2023-01-09T12:47:01;28.70;;;14.87;;
5690;SDS011;2870;42.680;23.364;2023-01-09T12:49:41;32.13;;;15.27;;
5690;SDS011;2870;42.680;23.364;2023-01-09T12:52:17;26.83;;;17.07;;
5690;SDS011;2870;42.680;23.364;2023-01-09T12:54:51;25.87;;;14.33;;
5690;SDS011;2870;42.680;23.364;2023-01-09T12:57:25;24.47;;;15.63;;
5690;SDS011;2870;42.680;23.364;2023-01-09T12:59:58;27.67;;;16.33;;
5690;SDS011;2870;42.680;23.364;2023-01-09T13:02:29;27.20;;;16.20;;
5690;SDS011;2870;42.680;23.364;2023-01-09T13:05:00;27.30;;;16.30;;
5690;SDS011;2870;42.680;23.364;2023-01-09T13:07:33;25.93;;;14.87;;
5690;SDS011;2870;42.680;23.364;2023-01-09T13:10:07;30.03;;;16.90;;
5690;SDS011;2870;42.680;23.364;2023-01-09T13:12:43;26.63;;;16.07;;
5690;SDS011;2870;42.680;23.364;2023-01-09T13:15:19;24.53;;;16.60;;
5690;SDS011;2870;42.680;23.364;2023-01-09T13:17:52;27.30;;;16.37;;
5690;SDS011;2870;42.680;23.364;2023-01-09T13:20:24;25.13;;;14.23;;
5690;SDS011;2870;42.680;23.364;2023-01-09T13:22:58;27.60;;;14.80;;
5690;SDS011;2870;42.680;23.364;2023-01-09T13:25:31;31.43;;;15.27;;
5690;SDS011;2870;42.680;23.364;2023-01-09T13:28:04;25.20;;;15.40;;
5690;SDS011;2870;42.680;23.364;2023-01-09T13:30:43;33.93;;;14.37;;
5690;SDS011;2870;42.680;23.364;2023-01-09T13:33:25;25.67;;;15.07;;
5690;SDS011;2870;42.680;23.364;2023-01-09T13:35:55;27.63;;;14.80;;
5690;SDS011;2870;42.680;23.364;2023-01-09T13:38:24;21.80;;;13.40;;
5690;SDS011;2870;42.680;23.364;2023-01-09T13:41:04;25.03;;;14.37;;
5690;SDS011;2870;42.680;23.364;2023-01-09T13:43:54;29.20;;;14.20;;
5690;SDS011;2870;42.680;23.364;2023-01-09T13:46:31;28.83;;;15.07;;
5690;SDS011;2870;42.680;23.364;2023-01-09T13:49:01;47.87;;;15.40;;
5690;SDS011;2870;42.680;23.364;2023-01-09T13:57:42;28.30;;;13.63;;
5690;SDS011;2870;42.680;23.364;2023-01-09T14:00:51;25.87;;;13.60;;
5690;SDS011;2870;42.680;23.364;2023-01-09T14:03:21;25.67;;;13.43;;
5690;SDS011;2870;42.680;23.364;2023-01-09T14:08:49;22.93;;;14.13;;
5690;SDS011;2870;42.680;23.364;2023-01-09T14:11:37;26.90;;;14.13;;
5690;SDS011;2870;42.680;23.364;2023-01-09T14:14:05;21.10;;;13.13;;
5690;SDS011;2870;42.680;23.364;2023-01-09T14:16:46;20.10;;;12.70;;
5690;SDS011;2870;42.680;23.364;2023-01-09T14:19:21;23.10;;;13.77;;
5690;SDS011;2870;42.680;23.364;2023-01-09T14:21:56;26.17;;;14.70;;
5690;SDS011;2870;42.680;23.364;2023-01-09T14:24:25;25.83;;;13.90;;
5690;SDS011;2870;42.680;23.364;2023-01-09T14:26:56;26.47;;;13.40;;
5690;SDS011;2870;42.680;23.364;2023-01-09T14:29:37;23.53;;;12.97;;
5690;SDS011;2870;42.680;23.364;2023-01-09T14:35:26;24.30;;;13.60;;
5690;SDS011;2870;42.680;23.364;2023-01-09T14:38:02;23.17;;;14.07;;
5690;SDS011;2870;42.680;23.364;2023-01-09T14:40:42;24.27;;;15.10;;
5690;SDS011;2870;42.680;23.364;2023-01-09T14:43:15;25.20;;;14.63;;
5690;SDS011;2870;42.680;23.364;2023-01-09T14:45:47;20.67;;;12.27;;
5690;SDS011;2870;42.680;23.364;2023-01-09T14:48:17;24.80;;;13.77;;
5690;SDS011;2870;42.680;23.364;2023-01-09T14:50:46;22.17;;;13.03;;
5690;SDS011;2870;42.680;23.364;2023-01-09T14:53:20;22.90;;;13.80;;
5690;SDS011;2870;42.680;23.364;2023-01-09T14:55:49;23.43;;;13.50;;
5690;SDS011;2870;42.680;23.364;2023-01-09T14:58:19;27.50;;;13.10;;
5690;SDS011;2870;42.680;23.364;2023-01-09T15:00:49;23.07;;;13.70;;
5690;SDS011;2870;42.680;23.364;2023-01-09T15:03:28;26.90;;;15.97;;
5690;SDS011;2870;42.680;23.364;2023-01-09T15:06:01;24.13;;;14.50;;
5690;SDS011;2870;42.680;23.364;2023-01-09T15:08:29;29.17;;;18.00;;
5690;SDS011;2870;42.680;23.364;2023-01-09T15:10:57;22.70;;;14.10;;
5690;SDS011;2870;42.680;23.364;2023-01-09T15:13:29;25.50;;;15.90;;
5690;SDS011;2870;42.680;23.364;2023-01-09T15:15:58;26.33;;;14.97;;
5690;SDS011;2870;42.680;23.364;2023-01-09T15:18:28;24.00;;;14.97;;
5690;SDS011;2870;42.680;23.364;2023-01-09T15:21:00;28.07;;;15.63;;